createdAt,value
2023-05-09T00:04:49.269Z,30.00
2023-05-09T00:09:41.990Z,27.10
2023-05-09T00:14:34.741Z,22.67
2023-05-09T00:19:27.470Z,22.27
2023-05-09T00:24:21.482Z,24.90
2023-05-09T00:29:14.122Z,14.77
2023-05-09T00:34:06.819Z,19.20
2023-05-09T00:38:59.436Z,16.53
2023-05-09T00:43:53.463Z,18.73
2023-05-09T00:48:46.593Z,18.30
2023-05-09T00:53:39.329Z,15.33
2023-05-09T00:58:32.211Z,15.83
2023-05-09T01:03:26.485Z,17.93
2023-05-09T01:08:24.144Z,20.97
2023-05-09T01:13:20.145Z,22.13
2023-05-09T01:18:15.505Z,26.03
2023-05-09T01:23:19.864Z,28.40
2023-05-09T01:28:15.024Z,23.37
2023-05-09T01:33:09.068Z,20.23
2023-05-09T01:38:03.355Z,14.70
2023-05-09T01:42:58.059Z,17.70
2023-05-09T01:47:51.359Z,21.77
2023-05-09T01:52:47.970Z,25.40
2023-05-09T01:57:41.389Z,33.57
2023-05-09T02:02:34.317Z,26.00
2023-05-09T02:07:27.748Z,23.37
2023-05-09T02:12:22.950Z,12.60
2023-05-09T02:17:17.091Z,12.27
2023-05-09T02:22:09.846Z,13.67
2023-05-09T02:27:03.693Z,14.87
2023-05-09T02:31:58.755Z,18.43
2023-05-09T02:36:52.128Z,21.00
2023-05-09T02:41:49.120Z,16.40
2023-05-09T02:46:41.777Z,20.87
2023-05-09T02:51:36.382Z,27.43
2023-05-09T02:56:29.198Z,25.57
2023-05-09T03:01:22.050Z,27.60
2023-05-09T03:06:14.710Z,29.50
2023-05-09T03:11:08.834Z,27.90
2023-05-09T03:16:02.572Z,32.90
2023-05-09T03:20:55.283Z,28.97
2023-05-09T03:25:48.088Z,33.00
2023-05-09T03:30:43.526Z,22.40
2023-05-09T03:35:40.314Z,19.53
2023-05-09T03:40:33.622Z,15.93
2023-05-09T03:45:32.869Z,18.67
2023-05-09T03:50:27.239Z,16.13
2023-05-09T03:55:23.730Z,15.87
2023-05-09T04:00:16.756Z,16.43
2023-05-09T04:05:19.323Z,16.00
2023-05-09T04:10:14.618Z,15.67
2023-05-09T04:15:08.318Z,19.00
2023-05-09T04:20:02.107Z,18.73
2023-05-09T04:24:55.327Z,20.13
2023-05-09T04:29:49.776Z,21.03
2023-05-09T04:34:42.861Z,17.40
2023-05-09T04:39:43.131Z,16.40
2023-05-09T04:44:43.227Z,18.23
2023-05-09T04:49:37.298Z,15.03
2023-05-09T04:54:30.060Z,15.50
2023-05-09T04:59:23.200Z,12.70
2023-05-09T05:04:15.989Z,12.10
2023-05-09T05:09:10.588Z,11.80
2023-05-09T05:14:03.405Z,13.03
2023-05-09T05:18:56.795Z,15.13
2023-05-09T05:23:50.194Z,11.23
2023-05-09T05:28:44.404Z,11.60
2023-05-09T05:33:37.361Z,12.47
2023-05-09T05:38:31.098Z,14.43
2023-05-09T05:43:25.207Z,14.37
2023-05-09T05:48:19.373Z,14.10
2023-05-09T05:53:13.660Z,14.57
2023-05-09T05:58:06.995Z,18.73
2023-05-09T06:03:00.885Z,15.90
2023-05-09T06:08:09.250Z,20.30
2023-05-09T06:13:02.367Z,21.40
2023-05-09T06:17:55.358Z,22.00
2023-05-09T06:22:48.083Z,21.10
2023-05-09T06:27:42.867Z,19.10
2023-05-09T06:32:35.673Z,15.97
2023-05-09T06:37:28.366Z,16.07
2023-05-09T06:42:21.018Z,14.53
2023-05-09T06:47:16.426Z,17.83
2023-05-09T06:52:09.427Z,12.47
2023-05-09T06:57:02.119Z,13.00
2023-05-09T07:01:54.766Z,12.73
2023-05-09T07:06:48.854Z,12.47
2023-05-09T07:11:41.483Z,11.50
2023-05-09T07:16:36.694Z,10.30
2023-05-09T07:21:30.336Z,10.37
2023-05-09T07:26:24.317Z,12.73
2023-05-09T07:31:16.921Z,10.60
2023-05-09T07:36:13.141Z,12.07
2023-05-09T07:41:07.020Z,12.03
2023-05-09T07:46:01.024Z,10.90
2023-05-09T07:50:53.749Z,9.83
2023-05-09T07:55:48.321Z,9.70
2023-05-09T08:00:41.613Z,15.40
2023-05-09T08:05:35.697Z,11.77
2023-05-09T08:10:30.650Z,10.70
2023-05-09T08:15:23.481Z,10.60
2023-05-09T08:20:16.225Z,9.00
2023-05-09T08:25:10.627Z,8.20
2023-05-09T08:30:03.247Z,10.30
2023-05-09T08:34:55.868Z,8.67
2023-05-09T08:39:48.537Z,8.53
2023-05-09T08:44:42.512Z,6.67
2023-05-09T08:49:36.229Z,6.80
2023-05-09T08:54:30.032Z,7.23
2023-05-09T08:59:23.109Z,7.50
2023-05-09T09:04:17.344Z,8.07
2023-05-09T09:09:10.425Z,8.20
2023-05-09T09:14:06.975Z,7.10
2023-05-09T09:18:59.770Z,6.60
2023-05-09T09:23:55.499Z,7.63
2023-05-09T09:28:48.179Z,8.73
2023-05-09T09:33:40.862Z,7.60
2023-05-09T09:38:40.502Z,7.67
2023-05-09T09:43:34.443Z,7.53
2023-05-09T09:48:27.371Z,9.37
2023-05-09T09:53:21.324Z,8.90
2023-05-09T09:58:17.513Z,9.10
2023-05-09T10:03:15.133Z,9.90
2023-05-09T10:08:09.505Z,8.03
2023-05-09T10:13:03.562Z,9.50
2023-05-09T10:17:58.067Z,7.27
2023-05-09T10:22:54.960Z,7.47
2023-05-09T10:27:48.363Z,8.00
2023-05-09T10:32:44.336Z,7.37
2023-05-09T10:37:37.705Z,9.07
2023-05-09T10:42:31.912Z,7.43
2023-05-09T10:47:24.906Z,8.37
2023-05-09T10:52:18.899Z,13.07
2023-05-09T10:57:11.970Z,8.00
2023-05-09T11:02:06.951Z,9.17
2023-05-09T11:07:00.308Z,9.90
2023-05-09T11:11:53.479Z,10.47
2023-05-09T11:16:57.965Z,9.03
2023-05-09T11:22:02.955Z,7.97
2023-05-09T11:26:56.271Z,8.67
2023-05-09T11:32:03.857Z,8.53
2023-05-09T11:37:07.686Z,7.20
2023-05-09T11:42:02.061Z,8.03
2023-05-09T11:46:54.717Z,6.93
2023-05-09T11:51:47.358Z,6.47
2023-05-09T11:56:41.561Z,8.27
2023-05-09T12:01:36.811Z,7.37
2023-05-09T12:06:30.057Z,7.13
2023-05-09T12:11:23.880Z,5.90
2023-05-09T12:16:17.116Z,8.93
2023-05-09T12:21:12.185Z,5.93
2023-05-09T12:26:05.922Z,7.30
2023-05-09T12:30:58.747Z,6.30
2023-05-09T12:36:03.975Z,6.60
2023-05-09T12:41:03.760Z,7.40
2023-05-09T12:45:56.762Z,8.17
2023-05-09T12:50:49.415Z,8.13
2023-05-09T12:55:42.374Z,7.60
2023-05-09T13:00:43.997Z,6.83
2023-05-09T13:05:36.732Z,6.43
2023-05-09T13:10:29.732Z,6.67
2023-05-09T13:15:22.994Z,7.50
2023-05-09T13:20:17.936Z,6.30
2023-05-09T13:25:11.413Z,8.30
2023-05-09T13:30:04.260Z,7.07
2023-05-09T13:34:56.876Z,6.37
2023-05-09T13:39:50.949Z,7.00
2023-05-09T13:44:43.490Z,6.17
2023-05-09T13:49:36.761Z,9.33
2023-05-09T13:54:34.898Z,5.80
2023-05-09T13:59:28.948Z,6.17
2023-05-09T14:04:21.509Z,11.70
2023-05-09T14:09:15.251Z,5.70
2023-05-09T14:14:08.289Z,6.23
2023-05-09T14:19:02.191Z,7.33
2023-05-09T14:23:55.036Z,7.13
2023-05-09T14:28:47.621Z,7.67
2023-05-09T14:33:40.304Z,8.50
2023-05-09T14:38:34.354Z,6.27
2023-05-09T14:43:26.953Z,5.67
2023-05-09T14:48:19.624Z,8.00
2023-05-09T14:53:12.647Z,5.47
2023-05-09T14:58:06.602Z,4.97
2023-05-09T15:02:59.243Z,5.40
2023-05-09T15:07:51.867Z,6.23
2023-05-09T15:12:44.705Z,5.20
2023-05-09T15:17:38.803Z,5.37
2023-05-09T15:22:33.721Z,6.13
2023-05-09T15:27:26.328Z,6.10
2023-05-09T15:32:19.095Z,7.03
2023-05-09T15:37:13.265Z,8.03
2023-05-09T15:42:08.593Z,7.20
2023-05-09T15:47:01.303Z,9.70
2023-05-09T15:51:53.925Z,8.60
2023-05-09T15:56:48.340Z,13.10
2023-05-09T16:01:40.966Z,10.87
2023-05-09T16:06:34.099Z,8.70
2023-05-09T16:11:26.755Z,6.93
2023-05-09T16:16:20.846Z,19.10
2023-05-09T16:21:13.540Z,7.70
2023-05-09T16:26:06.242Z,5.70
2023-05-09T16:31:00.145Z,7.80
2023-05-09T16:35:54.171Z,5.60
2023-05-09T16:40:46.853Z,6.20
2023-05-09T16:45:39.511Z,5.40
2023-05-09T16:50:32.495Z,8.80
2023-05-09T16:55:26.711Z,6.60
2023-05-09T17:00:19.886Z,6.87
2023-05-09T17:05:12.428Z,7.43
2023-05-09T17:10:05.222Z,8.63
2023-05-09T17:14:59.183Z,8.00
2023-05-09T17:19:52.354Z,9.13
2023-05-09T17:24:45.011Z,9.87
2023-05-09T17:29:37.720Z,8.33
2023-05-09T17:34:32.316Z,8.40
2023-05-09T17:39:25.069Z,10.13
2023-05-09T17:44:17.763Z,8.23
2023-05-09T17:49:11.284Z,11.50
2023-05-09T17:54:05.639Z,9.67
2023-05-09T17:58:59.818Z,11.63
2023-05-09T18:03:52.833Z,10.83
2023-05-09T18:08:45.616Z,10.77
2023-05-09T18:13:39.557Z,16.10
2023-05-09T18:18:32.456Z,15.57
2023-05-09T18:23:25.589Z,13.17
2023-05-09T18:28:24.385Z,19.07
2023-05-09T18:33:18.529Z,12.00
2023-05-09T18:38:11.485Z,10.33
2023-05-09T18:43:04.224Z,11.80
2023-05-09T18:47:56.968Z,11.30
2023-05-09T18:52:51.209Z,10.63
2023-05-09T18:57:43.956Z,11.57
2023-05-09T19:02:36.625Z,10.50
2023-05-09T19:07:29.470Z,10.13
2023-05-09T19:12:23.595Z,10.27
2023-05-09T19:17:16.422Z,9.17
2023-05-09T19:22:09.135Z,9.80
2023-05-09T19:27:02.097Z,9.20
2023-05-09T19:31:56.441Z,12.80
2023-05-09T19:36:49.280Z,10.90
2023-05-09T19:41:42.024Z,11.57
2023-05-09T19:46:35.354Z,11.90
2023-05-09T19:51:29.596Z,11.13
2023-05-09T19:56:23.265Z,8.17
2023-05-09T20:01:16.115Z,11.50
2023-05-09T20:06:09.158Z,8.67
2023-05-09T20:11:03.294Z,9.33
2023-05-09T20:15:57.109Z,9.50
2023-05-09T20:20:49.967Z,5.03
2023-05-09T20:25:42.908Z,5.60
2023-05-09T20:30:37.248Z,5.27
2023-05-09T20:35:30.754Z,5.77
2023-05-09T20:40:23.530Z,5.43
2023-05-09T20:45:16.649Z,6.20
2023-05-09T20:50:11.786Z,6.30
2023-05-09T20:55:05.388Z,10.27
2023-05-09T20:59:57.998Z,7.70
2023-05-09T21:04:50.714Z,8.77
2023-05-09T21:09:44.781Z,9.10
2023-05-09T21:14:37.395Z,10.70
2023-05-09T21:19:30.164Z,12.43
2023-05-09T21:24:22.817Z,14.10
2023-05-09T21:29:16.865Z,11.83
2023-05-09T21:34:10.674Z,12.37
2023-05-09T21:39:08.053Z,12.57
2023-05-09T21:44:00.751Z,17.63
2023-05-09T21:48:54.911Z,14.47
2023-05-09T21:53:47.593Z,14.57
2023-05-09T21:58:40.425Z,12.50
2023-05-09T22:03:33.221Z,12.83
2023-05-09T22:08:27.293Z,14.20
2023-05-09T22:13:19.952Z,15.13
2023-05-09T22:18:12.592Z,8.50
2023-05-09T22:23:05.457Z,7.67
2023-05-09T22:27:59.577Z,6.37
2023-05-09T22:32:52.292Z,6.10
2023-05-09T22:37:45.071Z,4.60
2023-05-09T22:42:39.613Z,5.27
2023-05-09T22:47:33.757Z,4.17
2023-05-09T22:52:26.507Z,2.77
2023-05-09T22:57:20.568Z,2.70
2023-05-09T23:02:13.466Z,3.40
2023-05-09T23:07:07.790Z,6.17
2023-05-09T23:12:01.250Z,5.20
2023-05-09T23:16:54.214Z,2.60
2023-05-09T23:21:46.859Z,2.30
2023-05-09T23:26:40.838Z,4.07
2023-05-09T23:31:33.485Z,3.00
2023-05-09T23:36:26.235Z,6.10
2023-05-09T23:41:20.046Z,2.53
2023-05-09T23:46:14.068Z,3.03
2023-05-09T23:51:06.922Z,3.60
2023-05-09T23:55:59.574Z,6.73
